Time;durP1;ratioP1;P1;durP2;ratioP2;P2;SDS_P1;SDS_P2;PMS_P1;PMS_P2;Temp;Humidity;BMP_temperature;BMP_pressure;BME280_temperature;BME280_humidity;BME280_pressure;Samples;Min_cycle;Max_cycle;Signal;HPM_P1;HPM_P2
2022/11/14 00:00:00;;;;;;;;;;;;;;;20.43;39.53;97232.50;5161939;27;19914;-35
2022/11/14 00:02:26;;;;;;;;;;;;;;;20.41;39.69;97243.22;5161763;27;19934;-35
2022/11/14 00:04:51;;;;;;;;;;;;;;;20.43;39.68;97234.50;5161766;27;19910;-34
2022/11/14 00:07:16;;;;;;;;;;;;;;;20.39;39.79;97242.19;5161964;27;19938;-34
2022/11/14 00:09:42;;;;;;;;;;;;;;;20.44;39.81;97234.03;5161681;27;19993;-34
2022/11/14 00:12:10;;;;;;;;;;;;;;;20.44;39.76;97234.03;5161976;27;20274;-34
2022/11/14 00:14:36;;;;;;;;;;;;;;;20.47;39.70;97243.34;5161885;27;19942;-34
2022/11/14 00:17:02;;;;;;;;;;;;;;;20.43;39.88;97232.50;5161944;27;19922;-34
2022/11/14 00:19:27;;;;;;;;;;;;;;;20.37;40.08;97239.16;5161523;27;19951;-34
2022/11/14 00:21:54;;;;;;;;;;;;;;;20.41;40.03;97236.97;5153480;27;19911;-34
2022/11/14 00:24:19;;;;;;;;;;;;;;;20.40;40.04;97229.91;5140924;27;20295;-34
2022/11/14 00:26:45;;;;;;;;;;;;;;;20.43;40.11;97238.00;5141173;27;19907;-34
2022/11/14 00:29:12;;;;;;;;;;;;;;;20.44;40.11;97245.03;5137013;27;20464;-34
2022/11/14 00:31:37;;;;;;;;;;;;;;;20.39;40.34;97251.22;5122140;27;19989;-35
2022/11/14 00:34:02;;;;;;;;;;;;;;;20.38;40.45;97249.69;5158169;27;20342;-34
2022/11/14 00:36:28;;;;;;;;;;;;;;;20.38;40.52;97246.94;5158435;27;20358;-34
2022/11/14 00:38:53;;;;;;;;;;;;;;;20.38;40.62;97252.47;5158388;27;19907;-34
2022/11/14 00:41:20;;;;;;;;;;;;;;;20.37;40.70;97250.94;5158104;27;19966;-35
2022/11/14 00:43:45;;;;;;;;;;;;;;;20.33;40.81;97255.81;5158222;27;19911;-34
2022/11/14 00:46:11;;;;;;;;;;;;;;;20.39;40.85;97253.97;5158155;27;20351;-34
2022/11/14 00:48:36;;;;;;;;;;;;;;;20.38;40.76;97243.44;5155175;27;20346;-34
2022/11/14 00:51:01;;;;;;;;;;;;;;;20.39;40.78;97245.72;5158101;27;19911;-34
2022/11/14 00:53:26;;;;;;;;;;;;;;;20.38;40.85;97249.69;5158237;27;19907;-34
2022/11/14 00:55:52;;;;;;;;;;;;;;;20.40;40.98;97249.97;5157909;27;19907;-34
2022/11/14 00:58:18;;;;;;;;;;;;;;;20.39;41.12;97247.72;5157955;27;19907;-34
2022/11/14 01:00:43;;;;;;;;;;;;;;;20.39;41.00;97245.72;5157829;27;19907;-33
2022/11/14 01:03:09;;;;;;;;;;;;;;;20.31;41.36;97241.75;5157807;27;19914;-34
2022/11/14 01:05:39;;;;;;;;;;;;;;;20.32;41.34;97240.53;5157940;27;20001;-34
2022/11/14 01:08:04;;;;;;;;;;;;;;;20.34;41.24;97234.56;5157804;27;19907;-35
2022/11/14 01:10:29;;;;;;;;;;;;;;;20.33;41.50;97233.03;5157633;27;20017;-34
2022/11/14 01:12:55;;;;;;;;;;;;;;;20.33;41.46;97239.31;5157440;27;19907;-36
2022/11/14 01:15:20;;;;;;;;;;;;;;;20.33;41.57;97230.28;5157485;27;19907;-34
2022/11/14 01:17:48;;;;;;;;;;;;;;;20.32;41.64;97226.75;5157370;27;19917;-34
2022/11/14 01:20:14;;;;;;;;;;;;;;;20.33;41.61;97219.25;5157605;27;19907;-36
2022/11/14 01:22:40;;;;;;;;;;;;;;;20.30;41.66;97211.94;5157325;27;19915;-34
2022/11/14 01:25:05;;;;;;;;;;;;;;;20.31;41.59;97214.22;5154536;27;19965;-35
2022/11/14 01:27:33;;;;;;;;;;;;;;;20.32;41.71;97206.72;5155827;27;19907;-34
2022/11/14 01:29:59;;;;;;;;;;;;;;;20.30;41.66;97201.66;5157749;27;20006;-34
2022/11/14 01:32:25;;;;;;;;;;;;;;;20.23;42.05;97198.53;5157080;27;19990;-34
2022/11/14 01:34:50;;;;;;;;;;;;;;;20.28;41.75;97193.13;5157260;27;20002;-35
2022/11/14 01:37:16;;;;;;;;;;;;;;;20.28;41.83;97187.59;5157179;27;19997;-34
2022/11/14 01:39:41;;;;;;;;;;;;;;;20.27;41.94;97194.38;5156585;27;20390;-34
2022/11/14 01:42:06;;;;;;;;;;;;;;;20.30;41.84;97187.91;5157425;27;19985;-34
2022/11/14 01:44:44;;;;;;;;;;;;;;;20.25;42.04;97191.31;5138543;27;20251;-34
2022/11/14 01:47:10;;;;;;;;;;;;;;;20.28;42.06;97193.13;5157080;27;19914;-34
2022/11/14 01:49:42;;;;;;;;;;;;;;;20.28;42.05;97198.63;5156810;27;19906;-34
2022/11/14 01:52:10;;;;;;;;;;;;;;;20.24;42.21;97191.78;5156846;27;19918;-34
2022/11/14 01:54:37;;;;;;;;;;;;;;;20.30;42.08;97192.66;5157181;27;19944;-33
2022/11/14 01:57:03;;;;;;;;;;;;;;;20.24;42.34;97192.56;5157018;27;19907;-34
2022/11/14 01:59:35;;;;;;;;;;;;;;;20.28;42.21;97182.09;5156752;27;19907;-34
2022/11/14 02:02:07;;;;;;;;;;;;;;;20.22;42.44;97186.75;5156737;27;19911;-34
2022/11/14 02:04:36;;;;;;;;;;;;;;;20.26;42.30;97190.09;5156725;27;19975;-34
2022/11/14 02:07:03;;;;;;;;;;;;;;;20.27;42.31;97186.09;5156480;27;19907;-36
2022/11/14 02:09:33;;;;;;;;;;;;;;;20.23;42.45;97185.53;5156631;27;19906;-35
2022/11/14 02:12:01;;;;;;;;;;;;;;;20.21;42.48;97196.25;5156411;27;19940;-34
2022/11/14 02:14:27;;;;;;;;;;;;;;;20.19;42.56;97190.44;5156262;27;19972;-34
2022/11/14 02:16:52;;;;;;;;;;;;;;;20.21;42.78;97198.25;5156493;27;20362;-34
2022/11/14 02:19:18;;;;;;;;;;;;;;;20.15;42.89;97200.13;5156642;27;19913;-33
2022/11/14 02:21:43;;;;;;;;;;;;;;;20.14;43.00;97187.59;5156596;27;19972;-34
2022/11/14 02:24:09;;;;;;;;;;;;;;;20.16;42.95;97188.63;5155925;27;19937;-34
2022/11/14 02:26:35;;;;;;;;;;;;;;;20.14;42.94;97187.59;5156515;27;20278;-35
2022/11/14 02:29:01;;;;;;;;;;;;;;;20.15;43.00;97189.88;5156197;27;20044;-33
2022/11/14 02:31:26;;;;;;;;;;;;;;;20.20;42.84;97182.94;5156034;27;19998;-35
2022/11/14 02:33:52;;;;;;;;;;;;;;;20.15;42.92;97178.09;5156135;27;19969;-34
2022/11/14 02:36:17;;;;;;;;;;;;;;;20.13;43.16;97175.81;5156049;27;19907;-34
2022/11/14 02:38:42;;;;;;;;;;;;;;;20.09;43.20;97169.72;5155988;27;19907;-34
2022/11/14 02:41:08;;;;;;;;;;;;;;;20.13;42.98;97164.81;5155918;27;20021;-34
2022/11/14 02:43:33;;;;;;;;;;;;;;;20.15;42.98;97158.81;5155980;27;20005;-34
2022/11/14 02:45:58;;;;;;;;;;;;;;;20.11;43.02;97161.00;5155929;27;20017;-34
2022/11/14 02:48:23;;;;;;;;;;;;;;;20.13;42.93;97153.78;5155947;27;19952;-35
2022/11/14 02:50:49;;;;;;;;;;;;;;;20.12;43.06;97163.28;5155348;27;20027;-34
2022/11/14 02:53:14;;;;;;;;;;;;;;;20.13;42.92;97164.81;5151402;27;19942;-34
2022/11/14 02:55:39;;;;;;;;;;;;;;;20.15;42.98;97161.59;5135216;27;19908;-34
2022/11/14 02:58:06;;;;;;;;;;;;;;;20.11;42.95;97161.75;5135050;27;19918;-34
2022/11/14 03:00:31;;;;;;;;;;;;;;;20.08;43.23;97168.19;5135027;27;19953;-34
2022/11/14 03:02:59;;;;;;;;;;;;;;;20.10;43.04;97163.00;5135000;27;19907;-34
2022/11/14 03:05:25;;;;;;;;;;;;;;;20.11;43.11;97164.50;5134915;27;19907;-34
2022/11/14 03:07:54;;;;;;;;;;;;;;;20.10;43.03;97160.22;5134919;27;19958;-34
2022/11/14 03:10:19;;;;;;;;;;;;;;;20.05;43.06;97166.38;5134958;27;19965;-34
2022/11/14 03:12:44;;;;;;;;;;;;;;;20.06;43.16;97167.91;5134940;27;20354;-34
2022/11/14 03:15:10;;;;;;;;;;;;;;;20.03;43.12;97166.09;5134883;28;19914;-33
2022/11/14 03:17:35;;;;;;;;;;;;;;;20.02;43.31;97164.59;5134850;28;20345;-34
2022/11/14 03:20:01;;;;;;;;;;;;;;;20.04;43.14;97164.84;5134978;28;19914;-35
2022/11/14 03:22:26;;;;;;;;;;;;;;;20.15;42.88;97158.81;5134666;28;20378;-34
2022/11/14 03:24:51;;;;;;;;;;;;;;;20.05;43.06;97156.13;5148781;27;20376;-34
2022/11/14 03:27:17;;;;;;;;;;;;;;;20.06;43.12;97149.41;5155529;27;19994;-35
2022/11/14 03:29:42;;;;;;;;;;;;;;;20.01;43.28;97147.31;5155361;27;20003;-36
2022/11/14 03:32:07;;;;;;;;;;;;;;;20.06;43.22;97148.63;5155459;27;19911;-34
2022/11/14 03:34:33;;;;;;;;;;;;;;;20.03;43.12;97149.56;5155457;27;20314;-34
2022/11/14 03:36:59;;;;;;;;;;;;;;;20.04;43.20;97151.84;5154609;27;20286;-34
2022/11/14 03:39:25;;;;;;;;;;;;;;;20.04;43.09;97151.84;5155196;27;19907;-34
2022/11/14 03:41:50;;;;;;;;;;;;;;;19.97;43.35;97156.97;5155594;27;19914;-34
2022/11/14 03:44:15;;;;;;;;;;;;;;;19.98;43.43;97153.00;5155447;27;19917;-34
2022/11/14 03:46:41;;;;;;;;;;;;;;;20.08;43.22;97151.69;5155326;27;19959;-34
2022/11/14 03:49:06;;;;;;;;;;;;;;;20.02;43.23;97146.09;5155134;27;19907;-33
2022/11/14 03:51:31;;;;;;;;;;;;;;;19.99;43.21;97149.78;5155008;27;20282;-34
2022/11/14 03:53:57;;;;;;;;;;;;;;;19.94;43.52;97147.66;5155083;27;19907;-34
2022/11/14 03:56:22;;;;;;;;;;;;;;;20.01;43.33;97152.81;5155092;27;20274;-33
2022/11/14 03:58:47;;;;;;;;;;;;;;;20.05;43.39;97149.84;5155491;27;20353;-34
2022/11/14 04:01:14;;;;;;;;;;;;;;;19.97;43.44;97143.97;5155021;27;19906;-34
2022/11/14 04:03:40;;;;;;;;;;;;;;;19.93;43.53;97145.38;5157992;27;20334;-34
2022/11/14 04:06:05;;;;;;;;;;;;;;;19.96;43.47;97150.72;5158866;27;19984;-34
2022/11/14 04:08:30;;;;;;;;;;;;;;;19.97;43.52;97156.97;5158947;27;19930;-34
2022/11/14 04:10:56;;;;;;;;;;;;;;;19.96;43.54;97156.22;5158505;27;19922;-34
2022/11/14 04:13:21;;;;;;;;;;;;;;;19.96;43.48;97155.44;5158849;27;19993;-34
2022/11/14 04:15:52;;;;;;;;;;;;;;;19.98;43.54;97158.50;5159053;27;19964;-36
2022/11/14 04:18:18;;;;;;;;;;;;;;;19.96;43.48;97152.69;5140368;27;19907;-35
2022/11/14 04:20:43;;;;;;;;;;;;;;;19.94;43.61;97147.66;5158580;27;19914;-35
2022/11/14 04:23:08;;;;;;;;;;;;;;;19.95;43.52;97151.19;5158494;27;19964;-34
2022/11/14 04:25:34;;;;;;;;;;;;;;;19.95;43.49;97143.69;5158873;27;19947;-34
2022/11/14 04:27:59;;;;;;;;;;;;;;;19.90;43.76;97140.84;5158497;27;19907;-34
2022/11/14 04:30:24;;;;;;;;;;;;;;;19.96;43.54;97133.44;5158730;27;19953;-35
2022/11/14 04:32:49;;;;;;;;;;;;;;;19.90;43.82;97129.81;5158597;27;19907;-34
2022/11/14 04:35:15;;;;;;;;;;;;;;;19.93;43.61;97126.09;5158655;27;20006;-34
2022/11/14 04:37:40;;;;;;;;;;;;;;;19.92;43.71;97121.81;5140012;27;19951;-33
2022/11/14 04:40:06;;;;;;;;;;;;;;;19.92;43.72;97124.56;5158257;27;19918;-35
2022/11/14 04:42:31;;;;;;;;;;;;;;;19.92;43.66;97116.31;5158208;27;20374;-34
2022/11/14 04:44:57;;;;;;;;;;;;;;;19.88;43.79;97111.03;5158086;27;19914;-34
2022/11/14 04:47:22;;;;;;;;;;;;;;;19.87;43.80;97109.50;5158150;27;19907;-34
2022/11/14 04:49:47;;;;;;;;;;;;;;;19.86;43.84;97107.22;5158508;27;19907;-34
2022/11/14 04:52:13;;;;;;;;;;;;;;;19.90;43.80;97113.31;5158280;27;20371;-35
2022/11/14 04:54:38;;;;;;;;;;;;;;;19.87;43.83;97104.00;5155356;27;20353;-33
2022/11/14 04:57:04;;;;;;;;;;;;;;;19.88;43.84;97102.75;5158288;27;19907;-34
2022/11/14 04:59:29;;;;;;;;;;;;;;;19.88;43.78;97097.25;5158052;27;20388;-34
2022/11/14 05:01:54;;;;;;;;;;;;;;;19.83;44.03;97105.41;5158117;27;19945;-34
2022/11/14 05:04:19;;;;;;;;;;;;;;;19.83;43.90;97099.88;5157884;27;19906;-34
2022/11/14 05:06:45;;;;;;;;;;;;;;;19.84;43.83;97098.66;5158151;27;19911;-36
2022/11/14 05:09:10;;;;;;;;;;;;;;;19.81;44.05;97094.09;5157951;27;19998;-35
2022/11/14 05:11:35;;;;;;;;;;;;;;;19.82;43.84;97098.38;5157575;27;20032;-34
2022/11/14 05:14:01;;;;;;;;;;;;;;;19.84;43.98;97098.66;5157056;27;19907;-34
2022/11/14 05:16:26;;;;;;;;;;;;;;;19.83;43.97;97095.16;5157576;27;20288;-36
2022/11/14 05:18:52;;;;;;;;;;;;;;;19.83;43.94;97086.88;5157990;27;19942;-34
2022/11/14 05:21:17;;;;;;;;;;;;;;;19.87;43.76;97086.72;5157718;27;19943;-33
2022/11/14 05:23:42;;;;;;;;;;;;;;;19.85;43.93;97078.16;5157236;27;20274;-35
2022/11/14 05:26:09;;;;;;;;;;;;;;;19.83;43.92;97069.59;5157449;27;19914;-34
2022/11/14 05:28:35;;;;;;;;;;;;;;;19.85;43.81;97069.91;5157470;27;20373;-34
2022/11/14 05:31:08;;;;;;;;;;;;;;;19.79;43.98;97075.28;5157445;27;19911;-34
2022/11/14 05:33:34;;;;;;;;;;;;;;;19.86;43.83;97074.19;5157455;27;19914;-34
2022/11/14 05:36:09;;;;;;;;;;;;;;;19.84;43.87;97060.13;5157398;27;19914;-34
2022/11/14 05:38:35;;;;;;;;;;;;;;;19.80;43.89;97065.03;5157011;27;19913;-34
2022/11/14 05:41:07;;;;;;;;;;;;;;;19.78;43.99;97062.03;5138401;27;19907;-34
2022/11/14 05:43:33;;;;;;;;;;;;;;;19.77;44.09;97060.50;5157382;27;19907;-34
2022/11/14 05:46:02;;;;;;;;;;;;;;;19.81;43.92;97053.56;5156885;27;20259;-34
2022/11/14 05:48:27;;;;;;;;;;;;;;;19.78;43.94;97062.03;5157124;27;19910;-34
2022/11/14 05:50:56;;;;;;;;;;;;;;;19.71;44.03;97061.16;5156889;27;19956;-34
2022/11/14 05:53:22;;;;;;;;;;;;;;;19.77;44.01;97060.50;5157019;27;19950;-34
2022/11/14 05:55:47;;;;;;;;;;;;;;;19.83;43.69;97058.59;5157008;27;19907;-34
2022/11/14 05:58:12;;;;;;;;;;;;;;;19.86;43.70;97055.66;5156711;27;20031;-34
2022/11/14 06:00:38;;;;;;;;;;;;;;;19.79;43.77;97064.28;5156645;27;19907;-34
2022/11/14 06:03:03;;;;;;;;;;;;;;;19.74;44.00;97062.19;5156754;27;19913;-34
2022/11/14 06:05:28;;;;;;;;;;;;;;;19.86;43.59;97052.91;5156833;27;19950;-34
2022/11/14 06:07:55;;;;;;;;;;;;;;;19.73;43.96;97055.94;5156941;27;19914;-33
2022/11/14 06:10:20;;;;;;;;;;;;;;;19.79;43.54;97064.28;5156897;27;19907;-35
2022/11/14 06:12:46;;;;;;;;;;;;;;;19.82;43.67;97073.59;5156368;27;19915;-34
2022/11/14 06:15:12;;;;;;;;;;;;;;;19.75;43.84;97077.47;5153515;27;19942;-34
2022/11/14 06:17:37;;;;;;;;;;;;;;;19.67;43.92;97077.06;5135491;27;19972;-34
2022/11/14 06:20:02;;;;;;;;;;;;;;;19.79;43.81;97082.78;5135720;27;19908;-33
2022/11/14 06:22:28;;;;;;;;;;;;;;;19.77;43.68;97093.53;5135535;27;19907;-34
2022/11/14 06:24:53;;;;;;;;;;;;;;;19.77;43.77;97082.53;5135556;27;19911;-34
2022/11/14 06:27:18;;;;;;;;;;;;;;;19.78;43.81;97075.78;5134676;27;19907;-34
2022/11/14 06:29:44;;;;;;;;;;;;;;;19.73;44.01;97077.94;5135379;27;20313;-35
2022/11/14 06:32:09;;;;;;;;;;;;;;;19.70;43.81;97070.63;5135168;27;19911;-34
2022/11/14 06:34:34;;;;;;;;;;;;;;;19.73;43.85;97077.19;5135177;27;19907;-34
2022/11/14 06:36:59;;;;;;;;;;;;;;;19.81;43.62;97072.06;5135264;27;19956;-34
2022/11/14 06:39:25;;;;;;;;;;;;;;;19.77;43.76;97072.28;5135256;27;19911;-35
2022/11/14 06:41:50;;;;;;;;;;;;;;;19.73;43.84;97083.47;5135292;27;19991;-34
2022/11/14 06:44:16;;;;;;;;;;;;;;;19.76;43.82;97079.00;5135141;27;20363;-34
2022/11/14 06:46:42;;;;;;;;;;;;;;;19.72;43.85;97081.94;5137694;27;19907;-34
2022/11/14 06:49:07;;;;;;;;;;;;;;;19.72;43.87;97081.94;5135084;27;19914;-35
2022/11/14 06:51:38;;;;;;;;;;;;;;;19.66;43.99;97086.56;5134723;27;19912;-34
2022/11/14 06:54:04;;;;;;;;;;;;;;;19.72;43.82;97081.16;5134906;27;20001;-33
2022/11/14 06:56:29;;;;;;;;;;;;;;;19.66;43.98;97083.03;5135370;27;19983;-35
2022/11/14 06:58:54;;;;;;;;;;;;;;;19.73;43.90;97088.19;5135148;27;20347;-35
2022/11/14 07:01:21;;;;;;;;;;;;;;;19.75;43.81;97096.00;5135046;27;19907;-34
2022/11/14 07:03:46;;;;;;;;;;;;;;;19.72;43.85;97100.44;5134890;27;19917;-34
2022/11/14 07:06:13;;;;;;;;;;;;;;;19.70;43.82;97108.41;5134902;27;19997;-35
2022/11/14 07:08:38;;;;;;;;;;;;;;;19.75;43.81;97107.00;5134957;27;19907;-34
2022/11/14 07:11:05;;;;;;;;;;;;;;;19.72;43.80;97109.47;5134825;27;19919;-34
2022/11/14 07:13:30;;;;;;;;;;;;;;;19.73;43.79;97105.47;5134793;27;20252;-34
2022/11/14 07:15:56;;;;;;;;;;;;;;;19.76;43.55;97106.53;5134739;28;19937;-34
2022/11/14 07:18:21;;;;;;;;;;;;;;;19.68;43.76;97108.88;5134808;28;19908;-35
2022/11/14 07:20:47;;;;;;;;;;;;;;;19.65;43.93;97109.81;5134777;28;19907;-34
2022/11/14 07:23:12;;;;;;;;;;;;;;;19.67;43.84;97101.84;5134623;28;19915;-35
2022/11/14 07:25:37;;;;;;;;;;;;;;;19.71;43.74;97118.19;5134613;28;19911;-35
2022/11/14 07:28:03;;;;;;;;;;;;;;;19.72;43.70;97114.97;5134785;28;19907;-35
2022/11/14 07:30:29;;;;;;;;;;;;;;;19.68;43.87;97128.13;5134611;28;19907;-34
2022/11/14 07:32:57;;;;;;;;;;;;;;;19.70;43.67;97131.19;5134603;28;19914;-34
2022/11/14 07:35:23;;;;;;;;;;;;;;;19.66;43.94;97116.81;5134643;28;19911;-36
2022/11/14 07:37:49;;;;;;;;;;;;;;;19.64;43.97;97104.78;5135992;27;19952;-34
2022/11/14 07:40:15;;;;;;;;;;;;;;;19.69;43.80;97107.63;5138801;27;19954;-34
2022/11/14 07:42:40;;;;;;;;;;;;;;;19.73;43.70;97102.72;5138682;27;19914;-33
2022/11/14 07:45:05;;;;;;;;;;;;;;;19.76;43.69;97103.78;5152752;27;19915;-35
2022/11/14 07:47:31;;;;;;;;;;;;;;;19.75;43.76;97104.25;5159560;27;19903;-36
2022/11/14 07:49:56;;;;;;;;;;;;;;;19.71;43.89;97096.16;5159379;27;20388;-34
2022/11/14 07:52:21;;;;;;;;;;;;;;;19.78;43.60;97100.56;5159531;27;20014;-34
2022/11/14 07:54:47;;;;;;;;;;;;;;;19.73;43.87;97099.97;5159259;27;19918;-34
2022/11/14 07:57:12;;;;;;;;;;;;;;;19.75;43.83;97098.75;5158922;27;20286;-34
2022/11/14 07:59:37;;;;;;;;;;;;;;;19.68;44.00;97097.84;5158529;27;19918;-34
2022/11/14 08:02:03;;;;;;;;;;;;;;;19.71;43.98;97099.69;5158683;27;19918;-35
2022/11/14 08:04:28;;;;;;;;;;;;;;;19.77;43.84;97105.31;5158639;27;19911;-34
2022/11/14 08:06:54;;;;;;;;;;;;;;;17.58;50.04;97108.72;5158753;27;19910;-33
2022/11/14 08:09:19;;;;;;;;;;;;;;;18.61;47.40;97109.72;5158442;27;20290;-33
2022/11/14 08:11:47;;;;;;;;;;;;;;;19.13;45.90;97104.94;5157119;27;20389;-33
2022/11/14 08:14:13;;;;;;;;;;;;;;;19.40;45.25;97110.28;5157881;27;20427;-35
2022/11/14 08:16:38;;;;;;;;;;;;;;;19.58;44.79;97107.41;5155071;27;19910;-34
2022/11/14 08:19:04;;;;;;;;;;;;;;;19.43;45.12;97103.81;5145552;27;19933;-34
2022/11/14 08:21:29;;;;;;;;;;;;;;;19.59;44.65;97111.69;5156447;27;19911;-34
2022/11/14 08:23:55;;;;;;;;;;;;;;;19.63;44.60;97106.78;5139087;27;19950;-33
2022/11/14 08:26:20;;;;;;;;;;;;;;;19.67;44.41;97112.84;5116927;27;19915;-34
2022/11/14 08:28:45;;;;;;;;;;;;;;;19.67;44.33;97107.34;5135509;27;20006;-33
2022/11/14 08:31:12;;;;;;;;;;;;;;;19.62;44.51;97104.50;5135758;27;20050;-34
2022/11/14 08:33:38;;;;;;;;;;;;;;;19.70;44.25;97105.66;5135877;27;19907;-34
2022/11/14 08:36:04;;;;;;;;;;;;;;;19.68;44.44;97106.13;5152642;27;19952;-33
2022/11/14 08:38:30;;;;;;;;;;;;;;;19.72;44.24;97108.69;5156194;27;19911;-34
2022/11/14 08:40:59;;;;;;;;;;;;;;;19.73;44.23;97110.22;5151274;27;20342;-34
2022/11/14 08:43:25;;;;;;;;;;;;;;;19.69;44.16;97104.88;5156405;27;19911;-34
2022/11/14 08:45:50;;;;;;;;;;;;;;;19.72;44.21;97108.69;5156336;27;19918;-34
2022/11/14 08:48:16;;;;;;;;;;;;;;;19.73;44.30;97108.22;5155821;27;19921;-34
2022/11/14 08:50:41;;;;;;;;;;;;;;;19.78;44.19;97117.06;5154658;27;19914;-34
2022/11/14 08:53:06;;;;;;;;;;;;;;;19.78;44.22;97111.56;5155737;27;19907;-34
2022/11/14 08:55:32;;;;;;;;;;;;;;;19.77;44.26;97108.06;5156065;27;19976;-34
2022/11/14 08:57:57;;;;;;;;;;;;;;;19.72;44.27;97103.94;5156108;27;19911;-33
2022/11/14 09:00:22;;;;;;;;;;;;;;;19.75;44.32;97102.25;5156038;27;19907;-34
2022/11/14 09:02:48;;;;;;;;;;;;;;;19.77;44.20;97104.53;5155986;27;20401;-34
2022/11/14 09:05:13;;;;;;;;;;;;;;;19.77;44.28;97110.81;5155733;27;19963;-34
2022/11/14 09:07:38;;;;;;;;;;;;;;;19.73;44.30;97121.97;5156238;27;19972;-34
2022/11/14 09:10:09;;;;;;;;;;;;;;;19.70;44.34;97122.16;5155874;27;19911;-35
2022/11/14 09:12:35;;;;;;;;;;;;;;;19.77;44.24;97127.31;5155652;27;19943;-36
2022/11/14 09:15:00;;;;;;;;;;;;;;;19.72;44.35;97136.22;5155898;27;19910;-34
2022/11/14 09:17:25;;;;;;;;;;;;;;;19.73;44.31;97130.25;5155410;27;19911;-34
2022/11/14 09:19:51;;;;;;;;;;;;;;;19.67;44.58;97136.84;5155389;27;19964;-33
2022/11/14 09:22:16;;;;;;;;;;;;;;;19.77;44.28;97141.06;5155604;27;19910;-34
2022/11/14 09:24:42;;;;;;;;;;;;;;;19.69;44.30;97148.91;5155399;27;20274;-34
2022/11/14 09:27:07;;;;;;;;;;;;;;;19.76;44.26;97150.56;5156029;27;19934;-34
2022/11/14 09:29:32;;;;;;;;;;;;;;;19.78;44.45;97150.84;5138565;27;19967;-34
2022/11/14 09:31:58;;;;;;;;;;;;;;;19.80;43.99;97159.38;5157313;27;19935;-33
2022/11/14 09:34:23;;;;;;;;;;;;;;;19.63;44.51;97161.03;5156605;27;19907;-34
2022/11/14 09:36:48;;;;;;;;;;;;;;;19.70;44.45;97161.44;5157590;27;20359;-34
2022/11/14 09:39:14;;;;;;;;;;;;;;;19.72;44.33;97156.25;5156931;27;20488;-35
2022/11/14 09:41:51;;;;;;;;;;;;;;;19.70;44.46;97166.19;5156474;27;19914;-34
2022/11/14 09:44:25;;;;;;;;;;;;;;;19.78;44.44;97155.59;5157175;27;19910;-34
2022/11/14 09:46:55;;;;;;;;;;;;;;;19.68;44.46;97155.66;5156557;27;19907;-34
2022/11/14 09:49:31;;;;;;;;;;;;;;;19.71;44.66;97156.69;5156944;27;19907;-34
2022/11/14 09:52:01;;;;;;;;;;;;;;;19.74;44.45;97150.28;5156934;27;19919;-33
2022/11/14 09:54:32;;;;;;;;;;;;;;;19.67;44.69;97153.34;5156864;27;19920;-34
2022/11/14 09:56:58;;;;;;;;;;;;;;;19.66;44.75;97146.34;5156937;27;19906;-35
2022/11/14 09:59:24;;;;;;;;;;;;;;;19.58;45.06;97148.69;5156885;27;19937;-36
2022/11/14 10:01:49;;;;;;;;;;;;;;;19.64;44.60;97152.31;5156775;27;19907;-34
2022/11/14 10:04:35;;;;;;;;;;;;;;;19.77;44.52;97152.09;5156570;27;19946;-36
2022/11/14 10:07:19;;;;;;;;;;;;;;;19.81;44.45;97160.16;5138453;27;19938;-34
2022/11/14 10:10:00;;;;;;;;;;;;;;;19.76;44.52;97153.31;5156520;27;19913;-33
2022/11/14 10:12:30;;;;;;;;;;;;;;;19.74;44.30;97153.03;5156612;27;20367;-34
2022/11/14 10:15:02;;;;;;;;;;;;;;;19.68;44.57;97152.13;5156764;27;19914;-35
2022/11/14 10:17:28;;;;;;;;;;;;;;;19.69;44.58;97157.16;5156537;27;19907;-34
2022/11/14 10:20:01;;;;;;;;;;;;;;;19.78;44.43;97150.84;5156572;27;19906;-34
2022/11/14 10:22:34;;;;;;;;;;;;;;;19.68;44.40;97150.16;5156514;27;20333;-35
2022/11/14 10:25:06;;;;;;;;;;;;;;;19.78;44.28;97150.84;5138060;27;20320;-33
2022/11/14 10:27:49;;;;;;;;;;;;;;;19.79;44.23;97152.34;5156528;27;19907;-34
2022/11/14 10:30:15;;;;;;;;;;;;;;;19.77;44.32;97152.09;5156122;27;19941;-34
2022/11/14 10:32:44;;;;;;;;;;;;;;;19.71;44.33;97151.19;5156142;27;20355;-34
2022/11/14 10:35:12;;;;;;;;;;;;;;;19.71;44.48;97156.69;5156044;27;19914;-34
2022/11/14 10:37:45;;;;;;;;;;;;;;;19.69;44.42;97162.66;5152226;27;19907;-35
2022/11/14 10:40:18;;;;;;;;;;;;;;;19.81;44.06;97165.66;5156262;27;19907;-34
2022/11/14 10:42:47;;;;;;;;;;;;;;;19.66;44.42;97163.59;5156340;27;19930;-34
2022/11/14 10:45:12;;;;;;;;;;;;;;;19.63;44.46;97161.81;5155949;27;19907;-34
2022/11/14 10:47:45;;;;;;;;;;;;;;;19.75;44.28;97160.06;5156377;27;19911;-34
2022/11/14 10:50:17;;;;;;;;;;;;;;;19.78;44.18;97155.59;5155940;27;19987;-35
2022/11/14 10:52:43;;;;;;;;;;;;;;;19.85;44.03;97153.25;5155785;27;20399;-34
2022/11/14 10:55:15;;;;;;;;;;;;;;;19.82;43.96;97145.16;5155983;27;19998;-34
2022/11/14 10:57:42;;;;;;;;;;;;;;;19.73;44.25;97138.50;5155826;27;19913;-34
2022/11/14 11:00:12;;;;;;;;;;;;;;;19.64;44.43;97137.81;5155908;27;19956;-35
2022/11/14 11:02:49;;;;;;;;;;;;;;;19.73;44.28;97146.75;5155767;27;19907;-34
2022/11/14 11:05:15;;;;;;;;;;;;;;;19.77;44.12;97143.06;5155670;27;19913;-35
2022/11/14 11:13:14;;;;;;;;;;;;;;;19.84;43.99;97150.97;5154928;27;19918;-34
2022/11/14 11:15:40;;;;;;;;;;;;;;;19.83;44.13;97146.69;5155652;27;19907;-34
2022/11/14 11:18:25;;;;;;;;;;;;;;;19.79;44.09;97144.09;5155647;27;20319;-33
2022/11/14 11:21:03;;;;;;;;;;;;;;;19.70;44.17;97144.94;5140873;27;19945;-35
2022/11/14 11:23:28;;;;;;;;;;;;;;;19.78;44.14;97145.31;5155113;27;19914;-36
2022/11/14 11:26:00;;;;;;;;;;;;;;;19.84;43.89;97139.94;5153476;27;19918;-36
2022/11/14 11:28:27;;;;;;;;;;;;;;;19.70;44.12;97139.44;5153239;27;19963;-33
2022/11/14 11:30:56;;;;;;;;;;;;;;;19.80;44.00;97145.63;5155074;27;19906;-34
2022/11/14 11:33:24;;;;;;;;;;;;;;;19.83;43.92;97150.19;5155571;27;19911;-34
2022/11/14 11:35:50;;;;;;;;;;;;;;;19.82;43.92;97145.16;5155419;27;19959;-34
2022/11/14 11:38:16;;;;;;;;;;;;;;;19.72;44.19;97153.47;5155299;27;19915;-34
2022/11/14 11:40:47;;;;;;;;;;;;;;;19.76;44.10;97158.06;5155524;27;20399;-33
2022/11/14 11:43:15;;;;;;;;;;;;;;;19.80;43.99;97151.13;5155129;27;19907;-34
2022/11/14 11:45:44;;;;;;;;;;;;;;;19.79;44.03;97151.59;5155424;27;20432;-33
2022/11/14 11:48:17;;;;;;;;;;;;;;;19.64;44.50;97146.81;5155226;27;19906;-34
2022/11/14 11:50:43;;;;;;;;;;;;;;;19.69;44.52;97148.16;5154783;27;19907;-33
2022/11/14 11:53:15;;;;;;;;;;;;;;;19.72;44.21;97142.47;5155126;27;20326;-34
2022/11/14 11:55:46;;;;;;;;;;;;;;;19.76;44.21;97136.03;5155215;27;19907;-34
2022/11/14 11:58:34;;;;;;;;;;;;;;;19.65;44.53;97137.34;5155151;27;19950;-35
2022/11/14 12:01:00;;;;;;;;;;;;;;;19.75;44.29;97149.03;5141501;27;19907;-34
2022/11/14 12:03:25;;;;;;;;;;;;;;;19.80;44.05;97142.09;5155200;27;19911;-34
2022/11/14 12:06:09;;;;;;;;;;;;;;;19.82;44.11;97145.16;5155123;27;19910;-34
2022/11/14 12:08:34;;;;;;;;;;;;;;;19.81;44.07;97143.63;5154935;27;19959;-34
2022/11/14 12:11:01;;;;;;;;;;;;;;;19.88;43.83;97146.03;5155065;27;19911;-33
2022/11/14 12:13:51;;;;;;;;;;;;;;;19.74;44.19;97144.75;5155379;27;20032;-34
2022/11/14 12:16:26;;;;;;;;;;;;;;;19.67;44.43;97148.63;5155166;27;19952;-34
2022/11/14 12:18:54;;;;;;;;;;;;;;;19.67;44.52;97134.09;5155124;27;19907;-33
2022/11/14 12:21:42;;;;;;;;;;;;;;;19.68;44.39;97143.88;5154868;27;20358;-34
2022/11/14 12:24:23;;;;;;;;;;;;;;;19.67;44.60;97145.88;5052072;28;19917;-33
2022/11/14 12:26:55;;;;;;;;;;;;;;;19.72;44.46;97144.47;5054734;28;19912;-34
2022/11/14 12:29:20;;;;;;;;;;;;;;;19.77;44.38;97148.56;5054436;28;20050;-34
2022/11/14 12:31:46;;;;;;;;;;;;;;;19.80;44.13;97144.88;5054015;28;20007;-34
2022/11/14 12:34:11;;;;;;;;;;;;;;;19.84;43.96;97148.19;5036966;28;19958;-34
2022/11/14 12:36:38;;;;;;;;;;;;;;;19.84;44.13;97143.47;5034692;28;19916;-34
2022/11/14 12:39:04;;;;;;;;;;;;;;;19.85;44.02;97144.22;5034088;28;19916;-34
2022/11/14 12:41:31;;;;;;;;;;;;;;;19.73;44.04;97138.50;5034286;28;19909;-34
2022/11/14 12:44:16;;;;;;;;;;;;;;;19.72;44.32;97133.47;5034360;28;19909;-34
2022/11/14 12:46:59;;;;;;;;;;;;;;;19.77;44.21;97132.06;5034433;28;19909;-34
2022/11/14 12:49:45;;;;;;;;;;;;;;;19.77;44.21;97140.31;5034711;28;19909;-34
2022/11/14 12:52:29;;;;;;;;;;;;;;;19.73;44.37;97144.00;5030381;28;19913;-35